createdAt,value
2022-10-19T00:02:21.958Z,143.40
2022-10-19T00:04:48.733Z,126.47
2022-10-19T00:07:15.303Z,125.80
2022-10-19T00:09:44.504Z,143.13
2022-10-19T00:12:12.538Z,156.60
2022-10-19T00:14:39.118Z,147.82
2022-10-19T00:17:05.866Z,134.57
2022-10-19T00:19:32.557Z,127.65
2022-10-19T00:21:59.241Z,129.75
2022-10-19T00:24:25.782Z,159.15
2022-10-19T00:26:52.306Z,206.80
2022-10-19T00:29:19.149Z,762.55
2022-10-19T00:31:46.034Z,472.30
2022-10-19T00:34:12.638Z,829.47
2022-10-19T00:36:40.902Z,946.88
2022-10-19T00:39:11.607Z,834.58
2022-10-19T00:41:39.530Z,818.35
2022-10-19T00:44:06.189Z,912.22
2022-10-19T00:46:35.771Z,792.22
2022-10-19T00:49:11.208Z,873.13
2022-10-19T00:51:41.141Z,847.47
2022-10-19T00:54:09.377Z,903.42
2022-10-19T00:56:39.720Z,861.22
2022-10-19T00:59:08.012Z,872.45
2022-10-19T01:01:35.544Z,890.15
2022-10-19T01:04:03.762Z,842.28
2022-10-19T01:06:31.144Z,957.30
2022-10-19T01:08:57.676Z,927.75
2022-10-19T01:11:44.973Z,879.40
2022-10-19T01:15:05.993Z,906.75
2022-10-19T01:17:54.096Z,873.78
2022-10-19T01:20:26.827Z,906.25
2022-10-19T01:23:11.783Z,856.53
2022-10-19T01:26:15.903Z,783.28
2022-10-19T01:29:00.975Z,775.53
2022-10-19T01:31:42.960Z,754.55
2022-10-19T01:34:27.101Z,789.10
2022-10-19T01:36:53.573Z,795.25
2022-10-19T01:39:38.505Z,774.38
2022-10-19T01:42:16.822Z,758.83
2022-10-19T01:45:06.439Z,675.60
2022-10-19T01:47:40.028Z,686.53
2022-10-19T01:50:13.434Z,535.75
2022-10-19T01:52:42.055Z,633.22
2022-10-19T01:55:11.632Z,532.25
2022-10-19T01:57:43.798Z,737.55
2022-10-19T02:00:12.978Z,707.05
2022-10-19T02:02:43.929Z,634.63
2022-10-19T02:05:12.224Z,617.65
2022-10-19T02:07:42.187Z,670.30
2022-10-19T02:10:09.095Z,546.28
2022-10-19T02:12:37.458Z,317.20
2022-10-19T02:15:10.871Z,569.78
2022-10-19T02:17:42.481Z,237.98
2022-10-19T02:20:09.599Z,164.73
2022-10-19T02:22:36.618Z,178.13
2022-10-19T02:25:03.824Z,169.85
2022-10-19T02:27:30.540Z,161.77
2022-10-19T02:29:57.132Z,149.35
2022-10-19T02:32:23.699Z,164.55
2022-10-19T02:34:50.306Z,150.52
2022-10-19T02:37:18.885Z,143.80
2022-10-19T02:39:46.630Z,185.65
2022-10-19T02:42:18.204Z,151.52
2022-10-19T02:44:53.482Z,148.02
2022-10-19T02:47:25.897Z,150.95
2022-10-19T02:49:53.249Z,141.40
2022-10-19T02:52:19.870Z,142.43
2022-10-19T02:54:46.699Z,127.72
2022-10-19T02:57:17.617Z,144.63
2022-10-19T02:59:44.349Z,173.40
2022-10-19T03:02:10.983Z,186.57
2022-10-19T03:04:37.704Z,591.65
2022-10-19T03:07:04.585Z,424.10
2022-10-19T03:09:31.117Z,564.58
2022-10-19T03:11:57.633Z,735.03
2022-10-19T03:14:24.480Z,656.40
2022-10-19T03:16:50.974Z,507.48
2022-10-19T03:19:17.585Z,834.38
2022-10-19T03:21:44.385Z,569.03
2022-10-19T03:24:12.477Z,760.50
2022-10-19T03:26:39.201Z,853.95
2022-10-19T03:29:05.893Z,814.53
2022-10-19T03:31:32.487Z,736.72
2022-10-19T03:33:59.047Z,511.00
2022-10-19T03:36:29.752Z,553.83
2022-10-19T03:38:59.695Z,248.82
2022-10-19T03:41:29.759Z,196.52
2022-10-19T03:43:57.068Z,212.48
2022-10-19T03:46:24.210Z,234.20
2022-10-19T03:48:51.049Z,201.90
2022-10-19T03:51:26.314Z,153.10
2022-10-19T03:54:01.508Z,170.88
2022-10-19T03:56:29.642Z,168.07
2022-10-19T03:58:58.799Z,156.32
2022-10-19T04:01:37.810Z,142.63
2022-10-19T04:04:07.198Z,143.10
2022-10-19T04:06:36.224Z,151.20
2022-10-19T04:09:03.856Z,145.35
2022-10-19T04:11:31.647Z,146.25
2022-10-19T04:13:59.441Z,132.30
2022-10-19T04:16:28.598Z,161.70
2022-10-19T04:18:55.658Z,160.52
2022-10-19T04:21:31.696Z,157.57
2022-10-19T04:24:02.115Z,177.15
2022-10-19T04:26:28.700Z,152.35
2022-10-19T04:28:58.597Z,162.98
2022-10-19T04:31:26.197Z,151.38
2022-10-19T04:33:52.764Z,152.18
2022-10-19T04:36:19.903Z,138.55
2022-10-19T04:38:46.465Z,127.50
2022-10-19T04:41:15.876Z,142.10
2022-10-19T04:43:45.230Z,150.27
2022-10-19T04:46:18.088Z,221.90
2022-10-19T04:48:46.694Z,442.48
2022-10-19T04:51:14.302Z,715.33
2022-10-19T04:53:42.610Z,836.28
2022-10-19T04:56:13.517Z,1150.97
2022-10-19T04:58:40.129Z,662.42
2022-10-19T05:01:11.793Z,1044.38
2022-10-19T05:03:38.803Z,902.75
2022-10-19T05:06:06.397Z,955.88
2022-10-19T05:08:33.242Z,623.47
2022-10-19T05:11:06.452Z,846.35
2022-10-19T05:13:33.497Z,777.40
2022-10-19T05:16:01.724Z,676.55
2022-10-19T05:18:29.123Z,602.22
2022-10-19T05:21:07.140Z,615.40
2022-10-19T05:23:34.523Z,665.13
2022-10-19T05:26:09.361Z,578.42
2022-10-19T05:28:36.879Z,573.35
2022-10-19T05:31:14.891Z,487.20
2022-10-19T05:33:42.409Z,1977.28
2022-10-19T05:36:20.987Z,483.10
2022-10-19T05:38:50.087Z,562.60
2022-10-19T05:41:17.268Z,516.08
2022-10-19T05:43:44.591Z,480.15
2022-10-19T05:46:14.114Z,480.90
2022-10-19T05:48:41.610Z,450.02
2022-10-19T05:51:11.759Z,522.53
2022-10-19T05:56:20.729Z,552.75
2022-10-19T05:58:48.371Z,570.63
2022-10-19T06:01:16.327Z,455.13
2022-10-19T06:03:43.092Z,575.72
2022-10-19T06:06:10.352Z,515.08
2022-10-19T06:08:37.799Z,465.00
2022-10-19T06:11:15.614Z,439.45
2022-10-19T06:13:44.049Z,615.28
2022-10-19T06:16:13.058Z,567.70
2022-10-19T06:18:40.239Z,681.15
2022-10-19T06:21:08.912Z,532.63
2022-10-19T06:23:35.963Z,553.38
2022-10-19T06:26:08.389Z,452.27
2022-10-19T06:28:36.868Z,522.97
2022-10-19T06:31:06.049Z,501.88
2022-10-19T06:33:35.191Z,558.05
2022-10-19T06:36:37.149Z,628.15
2022-10-19T06:39:03.946Z,697.67
2022-10-19T06:41:31.577Z,676.55
2022-10-19T06:43:58.259Z,708.92
2022-10-19T06:46:26.904Z,657.03
2022-10-19T06:49:02.560Z,590.63
2022-10-19T06:51:30.484Z,698.55
2022-10-19T06:53:57.622Z,641.47
2022-10-19T06:56:25.879Z,613.15
2022-10-19T06:58:53.231Z,658.47
2022-10-19T07:01:20.096Z,577.42
2022-10-19T07:03:47.037Z,572.72
2022-10-19T07:06:14.142Z,578.97
2022-10-19T07:08:42.650Z,616.80
2022-10-19T07:11:12.238Z,453.92
2022-10-19T07:13:39.671Z,486.52
2022-10-19T07:16:16.024Z,607.10
2022-10-19T07:18:47.023Z,537.67
2022-10-19T07:21:15.655Z,616.35
2022-10-19T07:23:43.817Z,592.75
2022-10-19T07:26:16.193Z,616.17
2022-10-19T07:28:45.310Z,551.13
2022-10-19T07:31:14.951Z,586.72
2022-10-19T07:33:41.545Z,582.92
2022-10-19T07:36:10.106Z,502.67
2022-10-19T07:38:37.564Z,600.53
2022-10-19T07:41:06.010Z,562.20
2022-10-19T07:43:33.231Z,565.08
2022-10-19T07:46:04.757Z,600.53
2022-10-19T07:48:31.599Z,446.27
2022-10-19T07:51:02.823Z,499.25
2022-10-19T07:53:29.415Z,499.20
2022-10-19T07:55:56.483Z,673.47
2022-10-19T07:58:23.014Z,551.53
2022-10-19T08:00:49.670Z,616.50
2022-10-19T08:03:57.573Z,597.50
2022-10-19T08:06:06.177Z,503.85
2022-10-19T08:08:33.522Z,561.15
2022-10-19T08:11:11.105Z,567.53
2022-10-19T08:13:38.521Z,592.90
2022-10-19T08:16:06.301Z,454.50
2022-10-19T08:21:04.430Z,275.85
2022-10-19T08:23:30.959Z,576.72
2022-10-19T08:25:59.465Z,474.73
2022-10-19T08:28:26.020Z,633.28
2022-10-19T08:30:57.935Z,634.22
2022-10-19T08:33:25.995Z,642.40
2022-10-19T08:35:54.100Z,529.80
2022-10-19T08:38:20.904Z,512.08
2022-10-19T08:40:47.484Z,592.65
2022-10-19T08:43:34.457Z,518.50
2022-10-19T08:46:24.385Z,613.83
2022-10-19T08:48:52.142Z,745.83
2022-10-19T08:51:18.775Z,568.42
2022-10-19T08:54:00.601Z,525.45
2022-10-19T08:56:51.466Z,524.00
2022-10-19T08:59:27.136Z,567.13
2022-10-19T09:02:02.664Z,536.90
2022-10-19T09:04:38.617Z,770.22
2022-10-19T09:07:11.034Z,536.47
2022-10-19T09:12:32.409Z,568.72
2022-10-19T09:15:06.994Z,553.95
2022-10-19T09:17:33.743Z,394.05
2022-10-19T09:20:21.477Z,629.65
2022-10-19T09:23:02.638Z,635.00
2022-10-19T09:25:31.150Z,520.28
2022-10-19T09:28:19.509Z,718.65
2022-10-19T09:30:48.308Z,571.90
2022-10-19T09:33:25.676Z,618.20
2022-10-19T09:35:56.579Z,748.92
2022-10-19T09:38:25.597Z,488.27
2022-10-19T09:40:52.127Z,565.85
2022-10-19T09:43:21.809Z,637.45
2022-10-19T09:46:00.894Z,631.28
2022-10-19T09:48:42.464Z,550.38
2022-10-19T09:51:14.257Z,318.63
2022-10-19T09:54:01.108Z,444.05
2022-10-19T09:56:28.143Z,438.20
2022-10-19T09:58:57.586Z,613.33
2022-10-19T10:01:41.704Z,527.38
2022-10-19T10:04:18.575Z,570.80
2022-10-19T10:06:48.275Z,585.05
2022-10-19T10:09:22.239Z,443.83
2022-10-19T10:11:50.979Z,526.88
2022-10-19T10:14:26.880Z,544.10
2022-10-19T10:17:01.650Z,385.05
2022-10-19T10:19:30.802Z,470.05
2022-10-19T10:22:00.033Z,464.85
2022-10-19T10:24:31.956Z,566.67
2022-10-19T10:27:00.886Z,386.48
2022-10-19T10:29:29.059Z,516.72
2022-10-19T10:32:00.451Z,636.30
2022-10-19T10:34:45.946Z,746.80
2022-10-19T10:37:44.815Z,611.05
2022-10-19T10:40:22.684Z,604.58
2022-10-19T10:42:52.731Z,593.13
2022-10-19T10:45:53.134Z,661.28
2022-10-19T10:48:40.066Z,548.10
2022-10-19T10:51:37.779Z,423.58
2022-10-19T10:54:31.336Z,280.55
2022-10-19T10:57:16.815Z,625.33
2022-10-19T10:59:57.852Z,260.95
2022-10-19T11:02:28.340Z,480.95
2022-10-19T11:05:01.839Z,367.25
2022-10-19T11:07:32.267Z,379.85
2022-10-19T11:10:06.837Z,492.15
2022-10-19T11:12:41.806Z,741.75
2022-10-19T11:18:14.232Z,214.05
2022-10-19T11:20:47.758Z,336.30
2022-10-19T11:23:24.325Z,353.77
2022-10-19T11:26:34.516Z,475.95
2022-10-19T11:29:12.813Z,298.08
2022-10-19T11:31:47.415Z,607.60
2022-10-19T11:34:32.781Z,234.70
2022-10-19T11:37:16.844Z,587.40
2022-10-19T11:39:51.426Z,381.23
2022-10-19T11:42:21.000Z,251.55
2022-10-19T11:44:57.124Z,300.02
2022-10-19T11:47:29.941Z,448.30
2022-10-19T11:52:50.712Z,436.75
2022-10-19T11:56:07.971Z,438.85
2022-10-19T11:58:49.575Z,587.08
2022-10-19T12:01:37.569Z,251.40
2022-10-19T12:04:20.721Z,581.20
2022-10-19T12:06:56.141Z,342.13
2022-10-19T12:09:36.691Z,178.32
2022-10-19T12:12:08.903Z,147.13
2022-10-19T12:14:40.486Z,204.20
2022-10-19T12:17:18.127Z,241.77
2022-10-19T12:19:49.345Z,71.20
2022-10-19T12:22:22.451Z,79.47
2022-10-19T12:24:50.875Z,71.03
2022-10-19T12:27:29.735Z,75.38
2022-10-19T12:30:02.006Z,56.15
2022-10-19T12:32:33.701Z,64.25
2022-10-19T12:35:21.851Z,55.78
2022-10-19T12:37:57.287Z,54.75
2022-10-19T12:40:27.919Z,56.60
2022-10-19T12:43:08.924Z,55.35
2022-10-19T12:45:48.554Z,47.03
2022-10-19T12:48:20.477Z,55.45
2022-10-19T12:50:49.889Z,52.58
2022-10-19T12:53:39.451Z,50.58
2022-10-19T12:56:11.666Z,50.45
2022-10-19T12:58:38.119Z,51.65
2022-10-19T13:01:07.242Z,47.97
2022-10-19T13:03:42.561Z,46.33
2022-10-19T13:06:18.784Z,44.78
2022-10-19T13:09:07.016Z,43.83
2022-10-19T13:14:27.852Z,46.35
2022-10-19T13:17:00.264Z,45.63
2022-10-19T13:19:27.306Z,43.75
2022-10-19T13:21:55.122Z,42.67
2022-10-19T13:24:24.627Z,44.33
2022-10-19T13:27:03.522Z,38.53
2022-10-19T13:29:44.472Z,44.25
2022-10-19T13:32:29.612Z,47.95
2022-10-19T13:35:23.794Z,44.42
2022-10-19T13:38:09.146Z,41.50
2022-10-19T13:40:56.064Z,43.92
2022-10-19T13:43:26.076Z,40.63
2022-10-19T13:46:07.794Z,36.45
2022-10-19T13:49:09.054Z,36.78
2022-10-19T13:51:35.551Z,33.88
2022-10-19T13:54:23.782Z,38.25
2022-10-19T13:57:27.492Z,32.65
2022-10-19T13:59:59.707Z,29.33
2022-10-19T14:02:47.389Z,31.45
2022-10-19T14:05:45.443Z,30.67
2022-10-19T14:08:33.959Z,29.83
2022-10-19T14:11:11.779Z,30.25
2022-10-19T14:13:38.444Z,36.83
2022-10-19T14:16:05.529Z,26.70
2022-10-19T14:18:34.646Z,24.67
2022-10-19T14:21:07.520Z,26.52
2022-10-19T14:23:37.011Z,23.75
2022-10-19T14:26:21.883Z,21.95
2022-10-19T14:28:54.193Z,26.70
2022-10-19T14:31:35.062Z,21.10
2022-10-19T14:34:04.196Z,23.65
2022-10-19T14:36:38.191Z,23.77
2022-10-19T14:39:05.908Z,22.10
2022-10-19T14:41:36.090Z,21.10
2022-10-19T14:44:28.445Z,22.25
2022-10-19T14:46:55.735Z,23.85
2022-10-19T14:49:22.303Z,20.75
2022-10-19T14:51:54.076Z,21.60
2022-10-19T14:54:29.142Z,20.80
2022-10-19T14:57:01.139Z,19.05
2022-10-19T14:59:33.675Z,19.33
2022-10-19T15:02:03.830Z,27.38
2022-10-19T15:04:36.906Z,17.70
2022-10-19T15:07:13.743Z,17.98
2022-10-19T15:09:49.682Z,19.17
2022-10-19T15:12:20.717Z,21.17
2022-10-19T15:14:48.038Z,19.80
2022-10-19T15:17:22.219Z,20.33
2022-10-19T15:19:48.890Z,19.70
2022-10-19T15:22:19.843Z,17.83
2022-10-19T15:25:07.446Z,19.58
2022-10-19T15:27:35.298Z,17.95
2022-10-19T15:30:21.152Z,23.05
2022-10-19T15:32:50.649Z,18.63
2022-10-19T15:35:33.180Z,18.27
2022-10-19T15:38:10.111Z,17.77
2022-10-19T15:40:39.926Z,17.98
2022-10-19T15:43:34.481Z,20.95
2022-10-19T15:46:21.408Z,15.40
2022-10-19T15:48:55.184Z,18.33
2022-10-19T15:51:25.000Z,18.60
2022-10-19T15:53:58.959Z,19.88
2022-10-19T15:56:28.402Z,18.42
2022-10-19T15:58:57.290Z,18.55
2022-10-19T16:01:26.670Z,17.80
2022-10-19T16:03:53.672Z,19.40
2022-10-19T16:06:23.149Z,18.80
2022-10-19T16:08:51.281Z,17.98
2022-10-19T16:11:20.173Z,19.88
2022-10-19T16:13:47.402Z,18.15
2022-10-19T16:16:28.484Z,19.73
2022-10-19T16:18:56.281Z,17.83
2022-10-19T16:21:26.872Z,20.67
2022-10-19T16:23:53.762Z,19.73
2022-10-19T16:26:21.197Z,19.05
2022-10-19T16:28:48.945Z,19.13
2022-10-19T16:31:16.186Z,16.17
2022-10-19T16:33:42.802Z,15.60
2022-10-19T16:36:09.796Z,16.80
2022-10-19T16:38:36.999Z,20.42
2022-10-19T16:41:06.174Z,20.27
2022-10-19T16:43:33.627Z,16.95
2022-10-19T16:46:01.199Z,17.05
2022-10-19T16:48:28.201Z,17.27
2022-10-19T16:51:07.058Z,15.30
2022-10-19T16:53:34.662Z,15.48
2022-10-19T16:56:10.661Z,17.40
2022-10-19T16:58:37.777Z,15.98
2022-10-19T17:01:12.491Z,19.25
2022-10-19T17:03:39.205Z,16.77
2022-10-19T17:06:08.150Z,19.58
2022-10-19T17:08:53.045Z,17.05
2022-10-19T17:11:34.107Z,14.82
2022-10-19T17:14:04.529Z,16.80
2022-10-19T17:16:32.852Z,16.58
2022-10-19T17:19:01.326Z,16.65
2022-10-19T17:21:30.372Z,16.65
2022-10-19T17:24:00.027Z,19.20
2022-10-19T17:26:31.618Z,16.85
2022-10-19T17:28:59.642Z,17.38
2022-10-19T17:31:27.183Z,16.02
2022-10-19T17:33:54.610Z,16.17
2022-10-19T17:36:27.541Z,16.13
2022-10-19T17:38:58.766Z,18.88
2022-10-19T17:41:26.413Z,19.98
2022-10-19T17:43:53.211Z,20.63
2022-10-19T17:46:26.000Z,20.02
2022-10-19T17:48:52.851Z,19.85
2022-10-19T17:51:23.689Z,22.00
2022-10-19T17:53:50.956Z,21.40
2022-10-19T17:56:20.031Z,26.08
2022-10-19T17:58:47.663Z,23.95
2022-10-19T18:01:16.156Z,23.30
2022-10-19T18:03:42.879Z,22.67
2022-10-19T18:06:14.915Z,19.45
2022-10-19T18:08:44.775Z,27.33
2022-10-19T18:11:14.349Z,29.10
2022-10-19T18:13:42.101Z,25.95
2022-10-19T18:16:12.575Z,25.27
2022-10-19T18:18:41.082Z,26.40
2022-10-19T18:21:11.477Z,28.55
2022-10-19T18:23:38.600Z,28.45
2022-10-19T18:26:08.112Z,31.08
2022-10-19T18:28:35.191Z,31.35
2022-10-19T18:31:32.172Z,32.90
2022-10-19T18:34:01.555Z,29.17
2022-10-19T18:36:28.815Z,31.38
2022-10-19T18:38:59.419Z,34.00
2022-10-19T18:41:26.714Z,34.10
2022-10-19T18:43:57.129Z,29.35
2022-10-19T18:46:26.030Z,32.25
2022-10-19T18:48:53.699Z,28.30
2022-10-19T18:51:22.610Z,32.35
2022-10-19T18:53:50.146Z,34.00
2022-10-19T18:56:19.390Z,33.15
2022-10-19T18:58:46.718Z,32.03
2022-10-19T19:01:18.852Z,34.97
2022-10-19T19:03:47.719Z,36.55
2022-10-19T19:06:17.335Z,31.50
2022-10-19T19:11:29.579Z,32.10
2022-10-19T19:13:59.813Z,35.25
2022-10-19T19:16:27.808Z,36.60
2022-10-19T19:18:55.144Z,34.30
2022-10-19T19:21:27.319Z,38.03
2022-10-19T19:23:56.147Z,33.70
2022-10-19T19:26:26.316Z,37.58
2022-10-19T19:28:53.152Z,35.20
2022-10-19T19:31:20.473Z,37.13
2022-10-19T19:33:47.758Z,37.05
2022-10-19T19:36:16.378Z,38.42
2022-10-19T19:38:43.797Z,34.40
2022-10-19T19:41:15.293Z,35.38
2022-10-19T19:43:42.664Z,38.28
2022-10-19T19:46:16.758Z,37.58
2022-10-19T19:48:46.376Z,37.72
2022-10-19T19:51:18.669Z,33.58
2022-10-19T19:53:46.377Z,37.35
2022-10-19T19:56:14.616Z,35.72
2022-10-19T19:58:42.410Z,33.15
2022-10-19T20:01:20.099Z,35.58
2022-10-19T20:03:47.858Z,38.45
2022-10-19T20:06:18.681Z,36.50
2022-10-19T20:08:47.440Z,35.70
2022-10-19T20:11:16.139Z,34.88
2022-10-19T20:13:44.155Z,33.83
2022-10-19T20:16:13.834Z,37.80
2022-10-19T20:18:49.666Z,36.60
2022-10-19T20:21:18.884Z,38.85
2022-10-19T20:23:46.706Z,33.63
2022-10-19T20:26:21.232Z,34.72
2022-10-19T20:28:48.010Z,34.38
2022-10-19T20:31:15.125Z,35.85
2022-10-19T20:33:43.561Z,33.38
2022-10-19T20:36:14.515Z,36.92
2022-10-19T20:38:46.209Z,37.95
2022-10-19T20:41:12.753Z,37.78
2022-10-19T20:43:39.353Z,36.70
2022-10-19T20:46:08.475Z,34.33
2022-10-19T20:48:35.180Z,33.97
2022-10-19T20:51:19.144Z,34.85
2022-10-19T20:53:49.799Z,31.60
2022-10-19T20:56:21.479Z,32.00
2022-10-19T20:58:48.052Z,32.53
2022-10-19T21:01:17.438Z,35.53
2022-10-19T21:03:48.740Z,30.40
2022-10-19T21:06:15.738Z,34.20
2022-10-19T21:08:42.759Z,32.55
2022-10-19T21:11:14.609Z,38.47
2022-10-19T21:13:41.814Z,37.30
2022-10-19T21:16:17.253Z,32.65
2022-10-19T21:18:47.517Z,34.80
2022-10-19T21:21:18.807Z,35.38
2022-10-19T21:23:47.113Z,35.35
2022-10-19T21:26:13.963Z,36.88
2022-10-19T21:28:45.424Z,35.78
2022-10-19T21:31:11.983Z,37.75
2022-10-19T21:33:38.512Z,34.30
2022-10-19T21:36:07.057Z,34.88
2022-10-19T21:38:34.385Z,36.33
2022-10-19T21:41:03.114Z,33.65
2022-10-19T21:43:30.309Z,34.40
2022-10-19T21:45:56.951Z,41.92
2022-10-19T21:48:23.827Z,37.55
2022-10-19T21:50:50.677Z,37.63
2022-10-19T21:53:19.537Z,40.55
2022-10-19T21:55:46.779Z,38.10
2022-10-19T21:58:13.454Z,35.65
2022-10-19T22:00:40.439Z,40.63
2022-10-19T22:03:06.998Z,39.30
2022-10-19T22:05:33.665Z,38.47
2022-10-19T22:08:00.170Z,34.38
2022-10-19T22:10:27.046Z,37.47
2022-10-19T22:12:53.686Z,37.38
2022-10-19T22:15:20.211Z,36.88
2022-10-19T22:17:46.767Z,40.53
2022-10-19T22:20:13.484Z,41.85
2022-10-19T22:22:40.016Z,37.50
2022-10-19T22:25:06.830Z,38.00
2022-10-19T22:27:33.809Z,39.10
2022-10-19T22:30:00.325Z,40.88
2022-10-19T22:32:26.844Z,40.10
2022-10-19T22:34:53.427Z,42.10
2022-10-19T22:37:20.132Z,41.35
2022-10-19T22:39:46.678Z,49.65
2022-10-19T22:42:13.266Z,46.33
2022-10-19T22:44:39.838Z,46.40
2022-10-19T22:47:06.338Z,48.72
2022-10-19T22:49:33.261Z,45.80
2022-10-19T22:51:59.955Z,42.25
2022-10-19T22:54:26.529Z,42.55
2022-10-19T22:56:53.577Z,44.90
2022-10-19T22:59:20.098Z,43.33
2022-10-19T23:01:46.805Z,48.83
2022-10-19T23:04:13.424Z,46.20
2022-10-19T23:06:40.807Z,43.45
2022-10-19T23:09:07.521Z,44.33
2022-10-19T23:11:34.224Z,41.30
2022-10-19T23:14:00.753Z,51.22
2022-10-19T23:18:54.745Z,47.47
2022-10-19T23:21:21.311Z,46.95
2022-10-19T23:23:47.877Z,48.70
2022-10-19T23:26:17.152Z,46.80
2022-10-19T23:28:45.442Z,49.58
2022-10-19T23:31:14.853Z,52.30
2022-10-19T23:33:41.844Z,51.80
2022-10-19T23:36:20.410Z,49.65
2022-10-19T23:38:48.759Z,48.53
2022-10-19T23:41:16.279Z,43.40
2022-10-19T23:43:42.839Z,51.25
2022-10-19T23:46:09.799Z,46.42
2022-10-19T23:48:36.797Z,44.10
2022-10-19T23:51:06.816Z,49.83
2022-10-19T23:53:38.417Z,44.05
2022-10-19T23:56:16.478Z,47.88
2022-10-19T23:58:43.903Z,46.63
